createdAt,value
2019-05-29T00:00:53.928Z,63.57
2019-05-29T00:03:24.581Z,63.56
2019-05-29T00:05:54.893Z,63.63
2019-05-29T00:08:25.927Z,63.39
2019-05-29T00:10:56.179Z,63.56
2019-05-29T00:13:26.547Z,63.47
2019-05-29T00:15:56.797Z,63.58
2019-05-29T00:18:27.082Z,63.77
2019-05-29T00:20:57.330Z,63.79
2019-05-29T00:23:27.757Z,63.73
2019-05-29T00:26:01.129Z,63.74
2019-05-29T00:28:31.482Z,63.71
2019-05-29T00:31:01.842Z,63.76
2019-05-29T00:33:32.130Z,63.70
2019-05-29T00:36:02.918Z,63.90
2019-05-29T00:38:33.726Z,64.07
2019-05-29T00:41:05.040Z,64.18
2019-05-29T00:43:35.472Z,64.10
2019-05-29T00:46:05.754Z,64.27
2019-05-29T00:48:36.711Z,64.22
2019-05-29T00:51:07.380Z,64.33
2019-05-29T00:53:38.402Z,64.47
2019-05-29T00:56:10.484Z,64.48
2019-05-29T00:58:41.594Z,64.67
2019-05-29T01:01:13.306Z,64.65
2019-05-29T01:03:44.454Z,64.59
2019-05-29T01:06:16.092Z,64.73
2019-05-29T01:08:47.052Z,64.71
2019-05-29T01:11:18.713Z,64.85
2019-05-29T01:13:49.888Z,64.95
2019-05-29T01:16:20.311Z,65.03
2019-05-29T01:18:51.761Z,65.12
2019-05-29T01:21:22.233Z,65.10
2019-05-29T01:23:52.533Z,65.09
2019-05-29T01:26:22.943Z,65.05
2019-05-29T01:28:54.657Z,64.95
2019-05-29T01:31:25.117Z,64.71
2019-05-29T01:33:55.407Z,64.47
2019-05-29T01:36:26.761Z,64.37
2019-05-29T01:38:57.993Z,64.31
2019-05-29T01:41:28.358Z,64.25
2019-05-29T01:43:59.901Z,64.29
2019-05-29T01:46:30.217Z,64.30
2019-05-29T01:49:03.541Z,64.47
2019-05-29T01:51:34.253Z,64.40
2019-05-29T01:54:05.021Z,64.38
2019-05-29T01:56:35.733Z,64.33
2019-05-29T01:59:06.341Z,64.25
2019-05-29T02:01:36.766Z,64.37
2019-05-29T02:04:07.914Z,63.94
2019-05-29T02:06:38.233Z,64.18
2019-05-29T02:09:09.177Z,64.16
2019-05-29T02:11:39.861Z,64.33
2019-05-29T02:14:11.865Z,64.52
2019-05-29T02:16:42.353Z,64.44
2019-05-29T02:19:15.798Z,64.48
2019-05-29T02:21:46.035Z,64.37
2019-05-29T02:24:17.074Z,64.42
2019-05-29T02:26:47.554Z,64.38
2019-05-29T02:29:18.757Z,64.50
2019-05-29T02:31:49.143Z,64.41
2019-05-29T02:34:20.027Z,64.44
2019-05-29T02:36:50.731Z,64.57
2019-05-29T02:39:23.119Z,64.80
2019-05-29T02:41:54.117Z,64.84
2019-05-29T02:44:25.559Z,64.98
2019-05-29T02:46:57.182Z,64.79
2019-05-29T02:49:30.128Z,65.05
2019-05-29T02:52:00.681Z,65.05
2019-05-29T02:54:32.412Z,65.00
2019-05-29T02:57:03.120Z,65.12
2019-05-29T02:59:34.064Z,65.22
2019-05-29T03:02:04.378Z,65.05
2019-05-29T03:04:34.809Z,65.23
2019-05-29T03:07:05.696Z,65.32
2019-05-29T03:09:37.047Z,65.37
2019-05-29T03:12:08.138Z,65.33
2019-05-29T03:14:38.820Z,65.54
2019-05-29T03:17:09.592Z,65.57
2019-05-29T03:19:41.271Z,65.84
2019-05-29T03:22:12.606Z,65.66
2019-05-29T03:24:42.933Z,65.86
2019-05-29T03:27:13.293Z,66.01
2019-05-29T03:29:43.540Z,65.90
2019-05-29T03:32:14.718Z,65.84
2019-05-29T03:34:47.399Z,66.11
2019-05-29T03:37:18.547Z,66.09
2019-05-29T03:39:48.945Z,66.12
2019-05-29T03:42:19.985Z,66.35
2019-05-29T03:44:50.298Z,66.45
2019-05-29T03:47:20.523Z,66.54
2019-05-29T03:49:53.418Z,66.61
2019-05-29T03:52:26.317Z,66.63
2019-05-29T03:54:56.862Z,66.91
2019-05-29T03:57:29.803Z,66.63
2019-05-29T04:00:00.431Z,66.64
2019-05-29T04:02:31.303Z,66.87
2019-05-29T04:05:02.922Z,66.95
2019-05-29T04:07:35.622Z,66.51
2019-05-29T04:10:08.514Z,66.71
2019-05-29T04:12:38.748Z,66.38
2019-05-29T04:15:11.082Z,66.79
2019-05-29T04:17:43.958Z,66.92
2019-05-29T04:20:16.968Z,66.87
2019-05-29T04:22:48.855Z,66.84
2019-05-29T04:25:21.081Z,66.66
2019-05-29T04:27:52.010Z,66.64
2019-05-29T04:30:23.737Z,66.62
2019-05-29T04:32:54.872Z,66.68
2019-05-29T04:35:25.262Z,66.91
2019-05-29T04:37:55.547Z,66.72
2019-05-29T04:40:26.179Z,66.66
2019-05-29T04:42:57.151Z,66.22
2019-05-29T04:45:30.890Z,65.54
2019-05-29T04:48:01.664Z,64.37
2019-05-29T04:50:35.731Z,61.15
2019-05-29T04:53:05.881Z,57.30
2019-05-29T04:55:37.001Z,54.32
2019-05-29T04:58:08.474Z,51.76
2019-05-29T05:00:40.125Z,49.73
2019-05-29T05:03:10.450Z,49.59
2019-05-29T05:05:40.803Z,50.49
2019-05-29T05:08:11.508Z,51.81
2019-05-29T05:10:43.677Z,52.51
2019-05-29T05:13:14.686Z,52.88
2019-05-29T05:15:46.887Z,54.09
2019-05-29T05:18:17.337Z,55.40
2019-05-29T05:20:48.051Z,55.95
2019-05-29T05:23:18.565Z,55.58
2019-05-29T05:25:48.990Z,52.71
2019-05-29T05:28:19.353Z,48.06
2019-05-29T05:30:51.631Z,44.46
2019-05-29T05:33:22.367Z,41.84
2019-05-29T05:35:52.657Z,40.44
2019-05-29T05:38:23.845Z,41.07
2019-05-29T05:40:55.121Z,42.58
2019-05-29T05:43:25.546Z,44.74
2019-05-29T05:45:56.793Z,46.23
2019-05-29T05:48:27.104Z,47.66
2019-05-29T05:50:58.206Z,48.26
2019-05-29T05:53:28.473Z,49.10
2019-05-29T05:55:59.722Z,49.91
2019-05-29T05:58:31.555Z,50.13
2019-05-29T06:01:02.627Z,51.09
2019-05-29T06:03:33.942Z,51.09
2019-05-29T06:06:04.815Z,51.38
2019-05-29T06:08:36.651Z,50.58
2019-05-29T06:11:07.857Z,49.17
2019-05-29T06:13:38.411Z,48.15
2019-05-29T06:16:09.322Z,47.82
2019-05-29T06:18:40.648Z,47.45
2019-05-29T06:21:11.639Z,48.17
2019-05-29T06:23:43.201Z,48.69
2019-05-29T06:26:14.645Z,48.51
2019-05-29T06:28:45.492Z,48.42
2019-05-29T06:31:18.327Z,48.58
2019-05-29T06:33:48.561Z,48.42
2019-05-29T06:36:18.961Z,47.90
2019-05-29T06:38:51.485Z,48.20
2019-05-29T06:41:22.130Z,48.41
2019-05-29T06:43:52.805Z,47.90
2019-05-29T06:46:23.791Z,47.82
2019-05-29T06:49:00.449Z,47.85
2019-05-29T06:51:26.452Z,47.83
2019-05-29T06:53:56.803Z,47.98
2019-05-29T06:56:27.450Z,47.39
2019-05-29T06:58:58.185Z,47.29
2019-05-29T07:01:28.837Z,46.82
2019-05-29T07:04:11.119Z,46.81
2019-05-29T07:06:32.618Z,46.85
2019-05-29T07:09:05.437Z,46.43
2019-05-29T07:11:37.132Z,45.54
2019-05-29T07:14:08.703Z,45.02
2019-05-29T07:16:47.626Z,44.96
2019-05-29T07:19:25.581Z,45.13
2019-05-29T07:21:47.085Z,45.49
2019-05-29T07:24:17.578Z,45.72
2019-05-29T07:26:48.406Z,45.88
2019-05-29T07:29:19.052Z,46.31
2019-05-29T07:31:49.414Z,46.91
2019-05-29T07:34:19.786Z,47.11
2019-05-29T07:36:50.629Z,47.79
2019-05-29T07:39:20.937Z,47.94
2019-05-29T07:41:51.692Z,47.95
2019-05-29T07:44:22.199Z,48.15
2019-05-29T07:46:53.139Z,48.25
2019-05-29T07:49:38.123Z,47.04
2019-05-29T07:51:56.240Z,45.99
2019-05-29T07:54:26.498Z,45.67
2019-05-29T07:56:56.773Z,45.03
2019-05-29T07:59:28.701Z,44.88
2019-05-29T08:02:01.111Z,45.16
2019-05-29T08:04:31.546Z,45.25
2019-05-29T08:07:03.057Z,45.68
2019-05-29T08:09:36.127Z,45.68
2019-05-29T08:12:07.069Z,45.43
2019-05-29T08:14:38.054Z,45.50
2019-05-29T08:17:08.385Z,45.82
2019-05-29T08:19:53.512Z,45.78
2019-05-29T08:22:11.889Z,45.99
2019-05-29T08:24:42.723Z,45.65
2019-05-29T08:27:13.023Z,45.90
2019-05-29T08:29:44.744Z,45.99
2019-05-29T08:32:16.251Z,44.30
2019-05-29T08:34:47.087Z,44.11
2019-05-29T08:39:59.403Z,43.26
2019-05-29T08:42:30.873Z,42.48
2019-05-29T08:45:01.140Z,41.06
2019-05-29T08:47:31.501Z,40.96
2019-05-29T08:50:17.463Z,40.83
2019-05-29T08:52:34.479Z,40.53
2019-05-29T08:55:05.624Z,40.53
2019-05-29T08:57:37.424Z,40.51
2019-05-29T09:00:09.658Z,41.14
2019-05-29T09:02:42.651Z,40.66
2019-05-29T09:05:14.893Z,41.73
2019-05-29T09:07:46.426Z,41.56
2019-05-29T09:10:18.347Z,40.80
2019-05-29T09:13:01.872Z,40.72
2019-05-29T09:15:23.083Z,40.26
2019-05-29T09:17:54.121Z,40.36
2019-05-29T09:20:37.133Z,40.25
2019-05-29T09:22:57.723Z,40.33
2019-05-29T09:25:27.973Z,40.36
2019-05-29T09:27:58.518Z,39.96
2019-05-29T09:30:28.909Z,40.01
2019-05-29T09:32:59.534Z,41.60
2019-05-29T09:35:29.851Z,42.01
2019-05-29T09:38:00.386Z,42.22
2019-05-29T09:40:31.210Z,42.69
2019-05-29T09:43:03.103Z,42.39
2019-05-29T09:45:33.421Z,42.43
2019-05-29T09:48:03.845Z,42.97
2019-05-29T09:50:49.646Z,43.12
2019-05-29T09:53:07.514Z,42.11
2019-05-29T09:55:38.435Z,40.82
2019-05-29T09:58:09.254Z,39.99
2019-05-29T10:00:39.850Z,40.07
2019-05-29T10:03:11.570Z,40.00
2019-05-29T10:05:43.473Z,40.08
2019-05-29T10:08:16.956Z,40.14
2019-05-29T10:10:49.739Z,37.77
2019-05-29T10:13:20.155Z,38.40
2019-05-29T10:15:51.036Z,39.39
2019-05-29T10:18:32.101Z,40.58
2019-05-29T10:20:54.794Z,40.49
2019-05-29T10:23:27.055Z,40.70
2019-05-29T10:26:00.279Z,40.71
2019-05-29T10:28:49.498Z,40.17
2019-05-29T10:31:04.023Z,40.37
2019-05-29T10:33:35.230Z,41.34
2019-05-29T10:36:05.860Z,41.59
2019-05-29T10:38:37.640Z,41.73
2019-05-29T10:41:08.269Z,41.33
2019-05-29T10:43:39.078Z,40.63
2019-05-29T10:46:09.395Z,40.34
2019-05-29T10:48:39.752Z,40.58
2019-05-29T10:51:09.982Z,40.37
2019-05-29T10:53:41.600Z,40.72
2019-05-29T10:56:11.867Z,40.93
2019-05-29T10:58:49.762Z,40.50
2019-05-29T11:01:14.564Z,40.39
2019-05-29T11:03:47.242Z,40.80
2019-05-29T11:06:17.621Z,41.21
2019-05-29T11:08:49.999Z,41.25
2019-05-29T11:11:21.695Z,41.20
2019-05-29T11:13:55.334Z,40.73
2019-05-29T11:16:25.974Z,41.26
2019-05-29T11:18:57.606Z,41.03
2019-05-29T11:21:28.467Z,41.17
2019-05-29T11:23:59.764Z,40.59
2019-05-29T11:26:30.094Z,40.78
2019-05-29T11:29:00.361Z,41.57
2019-05-29T11:31:30.807Z,41.88
2019-05-29T11:34:02.999Z,42.54
2019-05-29T11:36:33.274Z,42.97
2019-05-29T11:39:06.265Z,43.74
2019-05-29T11:41:36.675Z,43.81
2019-05-29T11:44:07.424Z,43.80
2019-05-29T11:46:37.842Z,44.66
2019-05-29T11:49:08.474Z,44.27
2019-05-29T11:51:39.215Z,44.59
2019-05-29T11:54:14.263Z,45.12
2019-05-29T11:56:44.574Z,45.62
2019-05-29T11:59:15.330Z,45.72
2019-05-29T12:01:50.156Z,45.74
2019-05-29T12:04:26.329Z,45.47
2019-05-29T12:06:51.239Z,45.27
2019-05-29T12:09:32.123Z,45.51
2019-05-29T12:11:56.100Z,46.41
2019-05-29T12:14:28.241Z,46.68
2019-05-29T12:17:00.260Z,46.98
2019-05-29T12:19:30.622Z,46.99
2019-05-29T12:22:02.790Z,46.96
2019-05-29T12:24:34.899Z,46.96
2019-05-29T12:27:05.428Z,46.89
2019-05-29T12:29:35.783Z,47.07
2019-05-29T12:32:09.374Z,46.54
2019-05-29T12:34:52.769Z,46.03
2019-05-29T12:37:11.528Z,46.32
2019-05-29T12:39:41.846Z,46.61
2019-05-29T12:42:12.190Z,46.45
2019-05-29T12:44:43.513Z,46.96
2019-05-29T12:47:14.260Z,47.33
2019-05-29T12:49:45.470Z,47.76
2019-05-29T12:52:16.036Z,47.95
2019-05-29T12:54:49.151Z,47.65
2019-05-29T12:57:23.279Z,47.43
2019-05-29T12:59:51.474Z,47.60
2019-05-29T13:02:22.756Z,47.59
2019-05-29T13:05:18.334Z,47.51
2019-05-29T13:07:27.196Z,47.30
2019-05-29T13:09:58.912Z,47.21
2019-05-29T13:12:30.356Z,46.77
2019-05-29T13:15:03.475Z,47.11
2019-05-29T13:17:33.772Z,47.52
2019-05-29T13:20:20.996Z,47.59
2019-05-29T13:22:40.645Z,48.05
2019-05-29T13:25:14.315Z,48.27
2019-05-29T13:27:44.662Z,48.48
2019-05-29T13:30:17.584Z,49.04
2019-05-29T13:32:47.962Z,49.99
2019-05-29T13:35:21.909Z,50.90
2019-05-29T13:37:51.211Z,51.33
2019-05-29T13:40:21.943Z,51.16
2019-05-29T13:42:52.200Z,50.85
2019-05-29T13:45:23.972Z,50.51
2019-05-29T13:47:54.179Z,50.79
2019-05-29T13:50:24.831Z,51.41
2019-05-29T13:52:55.322Z,52.70
2019-05-29T13:55:25.863Z,53.58
2019-05-29T13:57:57.496Z,52.94
2019-05-29T14:00:33.929Z,52.99
2019-05-29T14:03:02.670Z,52.96
2019-05-29T14:05:33.781Z,53.11
2019-05-29T14:08:04.801Z,53.10
2019-05-29T14:10:35.763Z,53.79
2019-05-29T14:13:07.393Z,54.30
2019-05-29T14:15:39.431Z,54.50
2019-05-29T14:18:09.883Z,54.07
2019-05-29T14:20:40.640Z,53.50
2019-05-29T14:23:11.830Z,53.96
2019-05-29T14:25:44.199Z,54.18
2019-05-29T14:28:14.613Z,54.46
2019-05-29T14:30:45.603Z,54.69
2019-05-29T14:33:16.052Z,54.63
2019-05-29T14:35:47.487Z,54.71
2019-05-29T14:38:17.727Z,54.51
2019-05-29T14:40:48.380Z,55.06
2019-05-29T14:43:18.703Z,55.54
2019-05-29T14:45:50.220Z,55.20
2019-05-29T14:48:20.539Z,55.76
2019-05-29T14:50:50.857Z,56.19
2019-05-29T14:53:21.271Z,55.98
2019-05-29T14:55:53.235Z,55.99
2019-05-29T14:58:24.802Z,55.95
2019-05-29T15:00:55.214Z,56.33
2019-05-29T15:03:26.049Z,56.86
2019-05-29T15:05:56.534Z,57.04
2019-05-29T15:08:27.105Z,57.12
2019-05-29T15:10:57.841Z,57.48
2019-05-29T15:13:28.153Z,57.09
2019-05-29T15:15:58.477Z,56.87
2019-05-29T15:18:29.598Z,56.36
2019-05-29T15:21:00.714Z,55.73
2019-05-29T15:23:31.022Z,54.70
2019-05-29T15:26:02.539Z,53.87
2019-05-29T15:28:33.263Z,53.00
2019-05-29T15:31:03.995Z,52.42
2019-05-29T15:33:34.484Z,51.94
2019-05-29T15:36:06.394Z,52.01
2019-05-29T15:38:37.044Z,51.52
2019-05-29T15:41:08.603Z,52.05
2019-05-29T15:43:39.410Z,52.05
2019-05-29T15:46:12.149Z,52.57
2019-05-29T15:48:42.623Z,53.66
2019-05-29T15:51:13.300Z,54.02
2019-05-29T15:53:43.966Z,54.54
2019-05-29T15:56:25.555Z,55.47
2019-05-29T15:58:47.264Z,55.73
2019-05-29T16:01:18.678Z,55.90
2019-05-29T16:03:50.601Z,55.99
2019-05-29T16:06:24.615Z,55.59
2019-05-29T16:08:55.167Z,55.59
2019-05-29T16:11:25.959Z,55.15
2019-05-29T16:13:56.223Z,54.59
2019-05-29T16:16:26.568Z,54.33
2019-05-29T16:19:00.415Z,54.19
2019-05-29T16:21:29.281Z,53.90
2019-05-29T16:23:59.738Z,53.43
2019-05-29T16:26:30.959Z,53.20
2019-05-29T16:29:01.327Z,52.94
2019-05-29T16:31:31.717Z,53.37
2019-05-29T16:34:02.707Z,53.46
2019-05-29T16:36:33.391Z,53.36
2019-05-29T16:39:05.316Z,53.07
2019-05-29T16:41:38.025Z,53.40
2019-05-29T16:44:09.538Z,53.08
2019-05-29T16:46:40.227Z,53.39
2019-05-29T16:49:12.481Z,53.40
2019-05-29T16:51:44.940Z,53.48
2019-05-29T16:54:15.379Z,53.95
2019-05-29T16:56:47.759Z,54.03
2019-05-29T16:59:19.226Z,54.17
2019-05-29T17:01:49.897Z,54.45
2019-05-29T17:04:20.241Z,55.04
2019-05-29T17:06:53.235Z,55.13
2019-05-29T17:09:24.570Z,55.80
2019-05-29T17:11:56.128Z,56.15
2019-05-29T17:14:27.166Z,55.46
2019-05-29T17:16:57.757Z,55.62
2019-05-29T17:19:28.242Z,55.67
2019-05-29T17:21:59.283Z,55.39
2019-05-29T17:24:29.597Z,55.28
2019-05-29T17:27:02.556Z,55.35
2019-05-29T17:29:32.781Z,54.98
2019-05-29T17:32:03.726Z,55.59
2019-05-29T17:34:34.177Z,55.87
2019-05-29T17:37:05.792Z,56.08
2019-05-29T17:39:36.548Z,56.06
2019-05-29T17:42:07.702Z,56.04
2019-05-29T17:44:38.092Z,55.94
2019-05-29T17:47:09.067Z,55.88
2019-05-29T17:49:39.619Z,56.51
2019-05-29T17:52:10.460Z,56.38
2019-05-29T17:54:40.740Z,56.20
2019-05-29T17:57:12.374Z,56.06
2019-05-29T17:59:42.693Z,55.67
2019-05-29T18:02:14.453Z,56.19
2019-05-29T18:04:44.807Z,55.57
2019-05-29T18:07:16.371Z,55.83
2019-05-29T18:09:47.032Z,55.72
2019-05-29T18:12:19.164Z,56.19
2019-05-29T18:14:51.602Z,55.86
2019-05-29T18:17:23.574Z,56.21
2019-05-29T18:19:54.452Z,56.56
2019-05-29T18:22:25.713Z,56.67
2019-05-29T18:24:56.309Z,57.04
2019-05-29T18:27:28.150Z,57.02
2019-05-29T18:29:58.671Z,57.52
2019-05-29T18:32:29.133Z,57.30
2019-05-29T18:34:59.871Z,57.80
2019-05-29T18:37:30.747Z,57.83
2019-05-29T18:40:01.270Z,57.96
2019-05-29T18:42:33.252Z,57.96
2019-05-29T18:45:19.769Z,58.12
2019-05-29T18:47:38.590Z,58.36
2019-05-29T18:50:10.201Z,58.48
2019-05-29T18:52:43.236Z,57.77
2019-05-29T18:55:15.330Z,57.68
2019-05-29T18:57:47.256Z,57.76
2019-05-29T19:00:19.522Z,58.17
2019-05-29T19:02:51.136Z,58.18
2019-05-29T19:05:21.624Z,58.56
2019-05-29T19:07:52.288Z,58.63
2019-05-29T19:10:24.294Z,58.36
2019-05-29T19:12:56.470Z,58.16
2019-05-29T19:15:28.067Z,58.53
2019-05-29T19:17:58.648Z,59.28
2019-05-29T19:20:30.503Z,58.83
2019-05-29T19:23:01.698Z,59.19
2019-05-29T19:25:33.007Z,59.08
2019-05-29T19:28:05.518Z,59.43
2019-05-29T19:30:35.852Z,59.47
2019-05-29T19:33:08.053Z,59.37
2019-05-29T19:35:38.375Z,59.79
2019-05-29T19:38:09.112Z,60.26
2019-05-29T19:40:39.770Z,60.38
2019-05-29T19:43:12.316Z,60.78
2019-05-29T19:45:42.736Z,60.41
2019-05-29T19:48:15.617Z,60.65
2019-05-29T19:50:45.968Z,60.40
2019-05-29T19:53:16.746Z,60.88
2019-05-29T19:55:47.411Z,61.07
2019-05-29T19:58:17.755Z,60.79
2019-05-29T20:00:48.051Z,61.53
2019-05-29T20:03:20.245Z,61.96
2019-05-29T20:05:53.560Z,62.08
2019-05-29T20:08:24.143Z,62.00
2019-05-29T20:10:54.456Z,62.34
2019-05-29T20:13:26.115Z,62.69
2019-05-29T20:15:57.425Z,63.03
2019-05-29T20:18:29.972Z,62.75
2019-05-29T20:21:00.705Z,62.58
2019-05-29T20:23:32.542Z,62.91
2019-05-29T20:26:03.132Z,62.94
2019-05-29T20:28:34.243Z,62.83
2019-05-29T20:31:05.367Z,63.39
2019-05-29T20:33:36.662Z,63.37
2019-05-29T20:36:08.310Z,63.65
2019-05-29T20:38:39.398Z,63.97
2019-05-29T20:41:11.031Z,63.94
2019-05-29T20:43:42.302Z,63.96
2019-05-29T20:46:13.128Z,64.32
2019-05-29T20:48:43.927Z,64.33
2019-05-29T20:51:14.653Z,64.61
2019-05-29T20:53:45.312Z,64.79
2019-05-29T20:56:16.470Z,64.72
2019-05-29T20:58:47.755Z,65.06
2019-05-29T21:01:18.522Z,65.24
2019-05-29T21:03:50.645Z,64.88
2019-05-29T21:06:20.968Z,65.12
2019-05-29T21:08:52.913Z,65.34
2019-05-29T21:11:23.675Z,65.53
2019-05-29T21:13:55.885Z,65.39
2019-05-29T21:16:27.634Z,65.35
2019-05-29T21:18:57.957Z,65.33
2019-05-29T21:21:28.199Z,65.48
2019-05-29T21:24:00.142Z,65.59
2019-05-29T21:26:30.860Z,65.19
2019-05-29T21:29:02.237Z,65.70
2019-05-29T21:31:35.376Z,65.97
2019-05-29T21:34:06.701Z,66.37
2019-05-29T21:36:37.966Z,67.19
2019-05-29T21:39:09.831Z,66.72
2019-05-29T21:41:40.397Z,66.98
2019-05-29T21:44:12.597Z,67.13
2019-05-29T21:46:43.080Z,67.94
2019-05-29T21:49:13.601Z,69.01
2019-05-29T21:51:43.943Z,67.98
2019-05-29T21:54:15.044Z,68.57
2019-05-29T21:56:47.890Z,69.05
2019-05-29T21:59:19.812Z,69.48
2019-05-29T22:01:50.140Z,69.90
2019-05-29T22:04:20.547Z,68.97
2019-05-29T22:06:51.189Z,69.85
2019-05-29T22:09:22.025Z,70.21
2019-05-29T22:11:52.430Z,70.58
2019-05-29T22:14:25.493Z,70.10
2019-05-29T22:16:57.077Z,70.22
2019-05-29T22:19:30.482Z,70.51
2019-05-29T22:22:01.320Z,70.24
2019-05-29T22:24:32.648Z,70.46
2019-05-29T22:27:03.011Z,70.57
2019-05-29T22:29:33.376Z,70.20
2019-05-29T22:32:04.105Z,69.91
2019-05-29T22:34:35.213Z,69.91
2019-05-29T22:37:06.118Z,70.08
2019-05-29T22:39:36.490Z,68.46
2019-05-29T22:42:07.034Z,69.31
2019-05-29T22:44:40.369Z,69.29
2019-05-29T22:47:11.062Z,69.44
2019-05-29T22:49:42.447Z,69.44
2019-05-29T22:52:12.763Z,69.98
2019-05-29T22:54:43.055Z,69.65
2019-05-29T22:57:13.788Z,69.82
2019-05-29T22:59:44.245Z,69.53
2019-05-29T23:02:14.511Z,69.91
2019-05-29T23:04:45.817Z,69.73
2019-05-29T23:07:16.056Z,69.46
2019-05-29T23:09:47.486Z,68.94
2019-05-29T23:12:17.805Z,69.23
2019-05-29T23:14:49.467Z,69.05
2019-05-29T23:17:20.670Z,69.10
2019-05-29T23:19:52.369Z,69.69
2019-05-29T23:22:24.615Z,70.22
2019-05-29T23:24:56.763Z,70.13
2019-05-29T23:27:27.122Z,70.73
2019-05-29T23:29:59.042Z,70.78
2019-05-29T23:32:29.303Z,71.22
2019-05-29T23:35:01.313Z,71.18
2019-05-29T23:37:32.651Z,70.98
2019-05-29T23:40:03.602Z,70.95
2019-05-29T23:42:34.145Z,71.39
2019-05-29T23:45:09.072Z,71.24
2019-05-29T23:47:39.786Z,71.27
2019-05-29T23:50:10.853Z,71.17
2019-05-29T23:52:41.197Z,71.51
2019-05-29T23:55:12.689Z,71.57
2019-05-29T23:57:43.351Z,71.59
